Latest Weather Observations for Essendon Airport

IDV60801

Issued at 12:02 pm EST Monday 25 July 2016 (issued every 30 minutes, with the page automatically refreshed every 10 minutes)

About weather observations | Map of weather stations | Latest weather observations for VIC | Other Formats
Station Details ID: 086038 Name: ESSENDON AIRPORT Lat: -37.73 Lon: 144.91 Height: 78.4 m
Data from the previous 72 hours. | See also: Recent months at Essendon Airport
Date/Time
EST
Temp
°C
App
Temp
°C
Dew
Point
°C
Rel
Hum
%
Delta-T
°C
Wind Press
QNH
hPa
Press
MSL
hPa
Rain since
9am
mm
Dir  Spd
km/h
Gust
km/h
Spd
kts
Gust
kts
25/12:00pm 12.0 5.6 5.2 63 3.2 NW 28 44 15 24 1008.2 1008.3 0.0
25/11:30am 12.1 6.1 5.3 63 3.2 NW 26 39 14 21 1008.5 1008.6 0.0
25/11:10am 11.6 5.3 5.5 66 2.8 NW 28 46 15 25 1008.8 1008.9 0.0
25/11:00am 11.8 6.8 6.3 69 2.6 NW 22 35 12 19 1009.0 1009.1 0.0
25/10:30am 10.9 6.3 6.3 73 2.2 NW 20 35 11 19 1009.3 1009.4 0.0
25/10:00am 10.2 6.5 6.2 76 1.9 NNW 15 20 8 11 1009.1 1009.2 0.0
25/09:30am 9.9 5.1 5.7 75 1.9 NW 20 26 11 14 1009.1 1009.2 0.0
25/09:00am 9.9 4.4 5.7 75 1.9 NW 24 32 13 17 1008.7 1008.8 0.0
25/08:30am 9.1 3.9 5.5 78 1.6 NNW 22 28 12 15 1008.5 1008.6 0.0
25/08:00am 8.1 3.4 5.2 82 1.3 NNW 19 26 10 14 1008.4 1008.5 0.0
25/07:30am 7.4 2.6 4.7 83 1.2 N 19 20 10 11 1008.0 1008.1 0.0
25/07:00am 7.4 2.4 4.5 82 1.3 N 20 26 11 14 1007.6 1007.7 0.0
25/06:30am 7.1 2.3 4.4 83 1.2 NNW 19 24 10 13 1007.2 1007.3 0.0
25/06:00am 6.8 2.3 4.3 84 1.1 NNW 17 22 9 12 1006.9 1007.0 0.0
25/05:30am 7.4 2.3 4.2 80 1.4 N 20 28 11 15 1006.4 1006.5 0.0
25/05:00am 7.7 2.7 4.5 80 1.4 NNW 20 30 11 16 1006.3 1006.4 0.0
25/04:30am 7.7 2.6 4.3 79 1.5 N 20 28 11 15 1006.0 1006.1 0.0
25/04:00am 7.4 2.3 4.2 80 1.4 NNW 20 28 11 15 1005.7 1005.8 0.0
25/03:30am 6.8 1.8 3.8 81 1.3 N 19 26 10 14 1005.4 1005.5 0.0
25/03:00am 6.9 2.4 4.0 82 1.3 N 17 26 9 14 1005.5 1005.6 0.0
25/02:30am 6.9 2.4 4.2 83 1.2 N 17 24 9 13 1005.5 1005.6 0.0
25/02:00am 6.8 2.4 4.6 86 1.0 N 17 20 9 11 1005.3 1005.4 0.0
25/01:30am 6.4 3.1 4.4 87 0.9 N 11 15 6 8 1005.3 1005.4 0.0
25/01:00am 6.8 3.1 4.5 85 1.0 N 13 17 7 9 1005.2 1005.3 0.0
25/12:30am 7.1 2.7 4.8 85 1.0 N 17 20 9 11 1005.1 1005.2 0.0
25/12:00am 7.2 3.1 4.5 83 1.2 N 15 22 8 12 1005.3 1005.4 0.0
 
Date/Time
EST
Temp
°C
App
Temp
°C
Dew
Point
°C
Rel
Hum
%
Delta-T
°C
Wind Press
QNH
hPa
Press
MSL
hPa
Rain since
9am
mm
Dir  Spd
km/h
Gust
km/h
Spd
kts
Gust
kts
24/11:30pm 7.4 3.3 4.2 80 1.4 N 15 20 8 11 1005.2 1005.3 0.0
24/11:00pm 8.4 3.4 4.6 77 1.7 NNW 20 30 11 16 1005.0 1005.1 0.0
24/10:30pm 8.3 3.5 4.7 78 1.6 NNW 19 24 10 13 1004.9 1005.0 0.0
24/10:00pm 8.5 4.1 4.9 78 1.6 N 17 22 9 12 1005.1 1005.2 0.0
24/09:30pm 8.3 4.0 5.4 82 1.3 N 17 24 9 13 1005.1 1005.2 0.0
24/09:00pm 8.2 3.0 5.3 82 1.3 N 22 33 12 18 1005.1 1005.2 0.0
24/08:30pm 8.1 2.7 4.7 79 1.5 N 22 33 12 18 1005.0 1005.1 0.0
24/08:00pm 8.5 2.7 4.5 76 1.8 N 24 35 13 19 1005.2 1005.3 0.0
24/07:30pm 9.0 2.2 5.2 77 1.7 N 30 41 16 22 1005.1 1005.2 0.0
24/07:00pm 8.9 3.3 5.6 80 1.5 N 24 35 13 19 1004.8 1004.9 0.0
24/06:30pm 8.7 2.8 5.6 81 1.4 NNE 26 35 14 19 1004.5 1004.6 0.0
24/06:00pm 8.6 3.3 5.0 78 1.6 N 22 33 12 18 1004.6 1004.7 0.0
24/05:30pm 8.7 3.9 5.6 81 1.4 NNE 20 30 11 16 1004.8 1004.9 0.0
24/05:00pm 9.0 3.1 5.6 79 1.6 NNE 26 35 14 19 1005.1 1005.2 0.0
24/04:30pm 9.0 3.8 5.4 78 1.6 N 22 35 12 19 1005.6 1005.7 0.0
24/04:00pm 9.3 4.1 5.3 76 1.8 N 22 37 12 20 1005.7 1005.8 0.0
24/03:30pm 9.2 2.4 5.2 76 1.8 N 30 39 16 21 1006.0 1006.1 0.0
24/03:00pm 10.5 3.4 5.7 72 2.2 N 32 41 17 22 1006.4 1006.5 0.0
24/02:30pm 10.5 4.9 5.5 71 2.3 N 24 37 13 20 1006.5 1006.6 0.0
24/02:00pm 9.5 3.0 4.9 73 2.1 N 28 39 15 21 1006.8 1006.9 0.0
24/01:30pm 9.9 3.5 5.3 73 2.1 N 28 43 15 23 1007.0 1007.1 0.0
24/01:06pm 10.5 4.2 5.5 71 2.3 N 28 46 15 25 1007.3 1007.4 0.0
24/01:00pm 9.7 2.5 5.1 73 2.1 N 32 46 17 25 1007.4 1007.5 0.0
24/12:38pm 9.3 2.0 4.7 73 2.1 N 32 50 17 27 1007.9 1008.0 0.0
24/12:30pm 9.1 1.6 4.7 74 2.0 N 33 46 18 25 1008.0 1008.1 0.0
24/12:00pm 9.8 2.5 5.4 74 2.0 N 33 52 18 28 1008.5 1008.6 0.0
24/11:52am 9.0 1.5 4.6 74 2.0 N 33 52 18 28 1008.6 1008.7 0.0
24/11:30am 9.0 1.5 4.4 73 2.0 N 33 46 18 25 1008.9 1009.0 0.0
24/11:00am 8.6 1.1 4.2 74 1.9 N 33 54 18 29 1009.5 1009.6 0.0
24/10:30am 8.4 1.2 5.0 79 1.5 N 32 44 17 24 1010.1 1010.2 0.0
24/10:00am 7.7 0.3 4.1 78 1.6 N 32 46 17 25 1009.9 1010.0 0.0
24/09:30am 6.7 0.0 3.9 82 1.2 N 28 35 15 19 1010.0 1010.1 0.0
24/09:00am 5.4 -1.0 3.4 87 0.8 N 26 41 14 22 1010.2 1010.3 0.8
24/08:30am 4.5 -1.3 2.5 87 0.8 N 22 37 12 20 1010.3 1010.4 0.8
24/08:00am 4.3 -1.1 2.2 86 0.8 N 20 30 11 16 1010.4 1010.5 0.8
24/07:30am 4.2 -0.7 2.2 87 0.8 NNW 17 26 9 14 1010.7 1010.8 0.8
24/07:00am 3.7 -0.4 2.1 89 0.6 N 13 15 7 8 1010.8 1010.9 0.8
24/06:30am 4.2 -0.6 2.4 88 0.7 N 17 20 9 11 1010.6 1010.7 0.8
24/06:00am 4.1 -0.7 2.6 90 0.6 N 17 22 9 12 1010.6 1010.7 0.8
24/05:30am 3.6 -1.3 2.1 90 0.6 N 17 20 9 11 1010.8 1010.9 0.8
24/05:00am 3.7 -0.8 1.9 88 0.7 N 15 19 8 10 1011.1 1011.2 0.8
24/04:30am 3.7 -0.4 2.1 89 0.6 N 13 17 7 9 1011.6 1011.8 0.8
24/04:00am 4.2 -1.1 2.1 86 0.8 N 19 24 10 13 1011.9 1012.1 0.8
24/03:30am 4.3 -0.2 2.2 86 0.8 N 15 19 8 10 1012.0 1012.2 0.8
24/03:00am 4.5 -0.4 2.0 84 1.0 N 17 22 9 12 1012.0 1012.2 0.8
24/02:30am 4.6 0.1 2.0 83 1.0 N 15 19 8 10 1012.2 1012.4 0.8
24/02:00am 5.1 0.2 2.3 82 1.1 NNW 17 20 9 11 1012.2 1012.4 0.8
24/01:30am 4.9 0.4 2.3 83 1.1 NNW 15 19 8 10 1012.0 1012.2 0.8
24/01:00am 5.1 0.7 2.8 85 0.9 NNW 15 19 8 10 1012.2 1012.4 0.8
24/12:30am 4.4 0.4 2.6 88 0.7 N 13 15 7 8 1012.4 1012.6 0.8
24/12:00am 4.6 0.9 2.6 87 0.8 NNW 11 15 6 8 1012.7 1012.9 0.8
 
Date/Time
EST
Temp
°C
App
Temp
°C
Dew
Point
°C
Rel
Hum
%
Delta-T
°C
Wind Press
QNH
hPa
Press
MSL
hPa
Rain since
9am
mm
Dir  Spd
km/h
Gust
km/h
Spd
kts
Gust
kts
23/11:30pm 5.1 1.1 3.0 86 0.9 N 13 17 7 9 1012.9 1013.1 0.8
23/11:00pm 6.0 2.0 3.0 81 1.2 NNW 13 17 7 9 1013.0 1013.2 0.8
23/10:30pm 6.6 2.4 3.6 81 1.3 NW 15 20 8 11 1012.9 1013.1 0.8
23/10:00pm 7.1 2.5 3.7 79 1.5 NW 17 24 9 13 1012.8 1013.0 0.8
23/09:30pm 7.2 2.7 4.0 80 1.4 NW 17 22 9 12 1012.9 1013.1 0.8
23/09:00pm 7.3 2.8 4.3 81 1.3 NW 17 22 9 12 1013.0 1013.2 0.8
23/08:30pm 7.1 3.5 4.8 85 1.0 NW 13 17 7 9 1012.8 1013.0 0.8
23/08:00pm 6.7 2.6 4.5 86 1.0 NW 15 20 8 11 1012.3 1012.5 0.8
23/07:30pm 6.5 1.7 4.8 89 0.7 WNW 19 22 10 12 1012.3 1012.5 0.8
23/07:00pm 7.6 2.8 4.4 80 1.4 W 19 24 10 13 1012.1 1012.3 0.6
23/06:30pm 7.3 3.2 4.3 81 1.3 WNW 15 20 8 11 1011.5 1011.7 0.6
23/06:00pm 7.2 2.1 4.2 81 1.3 WNW 20 26 11 14 1011.2 1011.3 0.6
23/05:30pm 7.7 1.8 4.1 78 1.6 WNW 24 32 13 17 1010.7 1010.8 0.6
23/05:00pm 7.8 2.0 4.6 80 1.4 W 24 32 13 17 1010.3 1010.4 0.6
23/04:30pm 7.8 1.3 4.6 80 1.4 W 28 35 15 19 1009.8 1009.9 0.6
23/04:00pm 8.1 2.0 5.0 81 1.4 W 26 37 14 20 1009.7 1009.8 0.6
23/03:30pm 7.7 2.9 5.7 87 0.9 W 20 28 11 15 1009.2 1009.3 0.4
23/03:28pm 7.5 2.3 5.6 88 0.9 W 22 30 12 16 1009.2 1009.3 0.4
23/03:18pm 7.3 -0.1 5.1 86 1.0 W 33 52 18 28 1009.2 1009.3 0.4
23/03:15pm 7.0 -1.2 4.7 85 1.0 W 37 52 20 28 1009.2 1009.3 0.4
23/03:00pm 8.6 0.9 3.6 71 2.2 WNW 33 44 18 24 1008.7 1008.8 0.0
23/02:33pm 8.4 0.9 4.6 77 1.7 W 33 52 18 28 1008.3 1008.4 0.0
23/02:30pm 8.3 0.4 4.3 76 1.8 W 35 52 19 28 1008.3 1008.4 0.0
23/02:25pm 8.4 0.9 4.6 77 1.7 W 33 46 18 25 1008.2 1008.3 0.0
23/02:14pm 7.6 -2.3 4.7 82 1.3 WSW 46 67 25 36 1008.1 1008.2 0.0
23/02:08pm 9.1 0.2 2.9 65 2.7 W 39 63 21 34 1007.9 1008.0 0.0
23/02:00pm 10.0 0.9 1.6 56 3.5 W 39 50 21 27 1007.4 1007.5 0.0
23/01:30pm 10.6 2.3 2.4 57 3.5 W 35 48 19 26 1007.2 1007.3 0.0
23/01:18pm 10.8 2.6 2.6 57 3.5 WNW 35 54 19 29 1007.1 1007.2 0.0
23/01:00pm 9.8 1.2 2.6 61 3.1 W 37 52 20 28 1007.3 1007.4 0.0
23/12:30pm 9.3 0.7 2.4 62 2.9 W 37 48 20 26 1007.3 1007.4 0.0
23/12:00pm 9.5 2.6 4.5 71 2.2 WNW 30 43 16 23 1007.3 1007.4 0.0
23/11:30am 8.3 0.7 3.0 69 2.3 W 32 50 17 27 1007.4 1007.5 0.0
23/11:26am 8.1 1.3 3.0 70 2.2 W 28 46 15 25 1007.5 1007.6 0.0
23/11:00am 7.4 -1.6 2.7 72 2.0 WSW 39 54 21 29 1007.4 1007.5 0.0
23/10:30am 8.4 0.0 1.6 62 2.8 W 35 48 19 26 1006.7 1006.8 0.0
23/10:00am 8.9 2.4 2.5 64 2.7 W 26 37 14 20 1005.9 1006.0 0.0
23/09:30am 8.5 1.5 2.1 64 2.7 W 28 41 15 22 1005.2 1005.3 0.0
23/09:00am 7.8 1.7 2.7 70 2.2 W 24 32 13 17 1004.7 1004.8 1.2
23/08:30am 7.0 1.3 2.9 75 1.7 W 22 33 12 18 1004.1 1004.2 1.2
23/08:00am 6.8 1.5 3.2 78 1.5 WNW 20 32 11 17 1003.5 1003.6 1.2
23/07:30am 6.9 1.8 3.9 81 1.3 W 20 30 11 16 1003.0 1003.1 1.2
23/07:00am 7.1 1.0 4.8 85 1.0 W 26 35 14 19 1002.3 1002.4 1.2
23/06:30am 7.5 0.2 4.6 82 1.3 W 32 44 17 24 1001.3 1001.5 1.2
23/06:09am 7.6 0.2 5.1 84 1.1 W 33 54 18 29 1000.4 1000.5 1.2
23/06:00am 7.8 1.0 5.1 83 1.2 W 30 44 16 24 1000.1 1000.2 1.2
23/05:30am 7.8 1.3 4.9 82 1.3 W 28 39 15 21 999.2 999.3 1.2
23/05:00am 8.3 1.9 5.1 80 1.4 W 28 37 15 20 998.5 998.6 1.2
23/04:30am 8.3 1.9 5.4 82 1.3 W 28 37 15 20 997.9 998.0 1.2
23/04:00am 8.1 2.1 5.4 83 1.2 W 26 39 14 21 997.2 997.3 1.2
23/03:30am 8.3 1.5 5.2 81 1.4 W 30 39 16 21 996.6 996.7 1.2
23/03:00am 8.7 0.6 5.4 80 1.5 W 37 50 20 27 996.1 996.2 1.2
23/02:33am 9.3 1.5 5.1 75 1.9 WNW 35 54 19 29 995.2 995.3 1.2
23/02:30am 9.3 1.5 4.9 74 2.0 WNW 35 52 19 28 995.1 995.2 1.2
23/02:20am 9.4 2.9 4.8 73 2.1 WNW 28 50 15 27 994.6 994.7 1.2
23/02:00am 9.4 3.2 4.2 70 2.3 NW 26 37 14 20 994.1 994.2 1.2
23/01:30am 9.4 3.3 4.6 72 2.1 NW 26 37 14 20 993.4 993.5 1.2
23/01:00am 9.4 1.8 5.8 78 1.7 NW 35 54 19 29 993.6 993.7 1.2
23/12:45am 10.2 3.0 6.0 75 1.9 NW 33 61 18 33 993.9 994.0 1.2
23/12:41am 10.6 6.0 6.6 76 1.9 NW 20 44 11 24 993.9 994.0 1.2
23/12:30am 9.3 7.5 7.9 91 0.7 NNW 7 17 4 9 993.8 993.9 1.2
23/12:00am 8.9 6.3 7.7 92 0.6 W 11 17 6 9 993.7 993.8 1.2
 
Date/Time
EST
Temp
°C
App
Temp
°C
Dew
Point
°C
Rel
Hum
%
Delta-T
°C
Wind Press
QNH
hPa
Press
MSL
hPa
Rain since
9am
mm
Dir  Spd
km/h
Gust
km/h
Spd
kts
Gust
kts
22/11:30pm 9.2 6.6 7.8 91 0.7 SW 11 13 6 7 993.6 993.7 1.2
22/11:00pm 9.5 6.8 7.3 86 1.1 NW 11 15 6 8 993.6 993.7 1.2
22/10:30pm 10.0 4.8 7.4 84 1.2 WNW 24 35 13 19 993.7 993.8 1.2
22/10:00pm 11.3 6.5 8.7 84 1.3 NNW 24 35 13 19 993.8 993.9 0.8
22/09:30pm 11.6 8.6 9.2 85 1.2 NNW 15 26 8 14 993.9 994.0 0.6
22/09:00pm 10.9 9.1 9.3 90 0.8 NNE 9 13 5 7 994.3 994.4 0.6
22/08:30pm 10.8 9.2 8.9 88 0.9 N 7 9 4 5 994.9 995.0 0.6
22/08:00pm 10.3 8.3 8.6 89 0.8 NE 9 11 5 6 994.7 994.8 0.6
22/07:30pm 11.0 9.3 8.2 83 1.4 NNW 7 11 4 6 995.1 995.2 0.6
22/07:00pm 11.3 7.7 8.2 81 1.5 NW 17 24 9 13 995.3 995.4 0.6
22/06:30pm 11.0 8.2 8.6 85 1.2 WNW 13 24 7 13 995.4 995.5 0.6
22/06:13pm 11.3 7.2 8.5 83 1.4 WSW 20 39 11 21 996.0 996.1 0.6
22/06:00pm 12.2 9.3 8.1 76 2.0 NW 13 19 7 10 995.6 995.7 0.6
22/05:30pm 12.4 9.1 7.9 74 2.2 NW 15 24 8 13 995.2 995.3 0.6
22/05:00pm 12.8 9.1 7.9 72 2.4 NW 17 22 9 12 995.0 995.1 0.6
22/04:30pm 12.4 7.8 8.1 75 2.1 NW 22 32 12 17 995.0 995.1 0.6
22/04:00pm 12.0 7.1 8.5 79 1.8 NW 24 33 13 18 995.1 995.2 0.6
22/03:30pm 11.8 6.6 8.8 82 1.5 NW 26 39 14 21 995.4 995.5 0.6
22/03:07pm 11.8 5.0 9.2 84 1.3 WNW 35 48 19 26 995.3 995.4 0.4
22/03:01pm 11.6 3.2 8.8 83 1.4 W 43 61 23 33 995.4 995.5 0.4
22/03:00pm 11.6 3.0 8.8 83 1.4 W 44 61 24 33 995.4 995.5 0.4
22/02:55pm 11.4 0.8 8.3 81 1.5 W 54 76 29 41 995.5 995.6 0.2
22/02:49pm 12.0 1.4 8.3 78 1.8 W 54 82 29 44 995.4 995.5 0.0
22/02:46pm 12.8 3.1 7.3 69 2.7 W 48 82 26 44 995.2 995.3 0.0
22/02:44pm 14.7 5.9 7.3 61 3.7 WNW 43 78 23 42 995.1 995.2 0.0
22/02:36pm 16.5 9.1 8.2 58 4.2 NW 37 56 20 30 994.5 994.6 0.0
22/02:30pm 16.6 9.6 8.6 59 4.1 NW 35 52 19 28 994.4 994.5 0.0
22/02:00pm 16.7 9.4 8.7 59 4.2 NW 37 46 20 25 994.4 994.5 0.0
22/01:33pm 16.5 9.2 8.7 60 4.0 NW 37 63 20 34 994.6 994.7 0.0
22/01:30pm 16.4 9.6 9.1 62 3.8 NW 35 48 19 26 994.7 994.8 0.0
22/01:08pm 16.1 10.8 9.8 66 3.3 NW 28 46 15 25 994.9 995.0 0.0
22/01:00pm 16.1 10.8 10.0 67 3.2 NW 28 41 15 22 994.9 995.0 0.0
22/12:36pm 15.9 9.8 9.8 67 3.2 NW 32 50 17 27 995.2 995.3 0.0
22/12:30pm 15.9 9.2 9.8 67 3.2 NW 35 50 19 27 995.3 995.4 0.0

Other Formats:

Comma delimited format used in spreadsheet applications
http://www.bom.gov.au/fwo/IDV60801/IDV60801.95866.axf

JavaScript Object Notation format (JSON) in row-major order
http://www.bom.gov.au/fwo/IDV60801/IDV60801.95866.json